sensor_id;sensor_type;location;lat;lon;timestamp;P1;durP1;ratioP1;P2;durP2;ratioP2
69008;SDS011;56065;52.472;13.380;2022-08-19T00:01:34;14.93;;;10.80;;
69008;SDS011;56065;52.472;13.380;2022-08-19T00:04:03;13.50;;;10.20;;
69008;SDS011;56065;52.472;13.380;2022-08-19T00:06:30;15.02;;;10.38;;
69008;SDS011;56065;52.472;13.380;2022-08-19T00:08:56;14.50;;;10.40;;
69008;SDS011;56065;52.472;13.380;2022-08-19T00:11:23;15.03;;;10.90;;
69008;SDS011;56065;52.472;13.380;2022-08-19T00:13:49;14.05;;;10.10;;
69008;SDS011;56065;52.472;13.380;2022-08-19T00:16:15;15.40;;;10.38;;
69008;SDS011;56065;52.472;13.380;2022-08-19T00:18:43;14.90;;;9.60;;
69008;SDS011;56065;52.472;13.380;2022-08-19T00:21:08;13.90;;;10.63;;
69008;SDS011;56065;52.472;13.380;2022-08-19T00:23:34;16.47;;;10.73;;
69008;SDS011;56065;52.472;13.380;2022-08-19T00:26:01;14.75;;;10.77;;
69008;SDS011;56065;52.472;13.380;2022-08-19T00:28:28;17.73;;;11.80;;
69008;SDS011;56065;52.472;13.380;2022-08-19T00:30:55;15.27;;;11.30;;
69008;SDS011;56065;52.472;13.380;2022-08-19T00:33:20;17.70;;;11.73;;
69008;SDS011;56065;52.472;13.380;2022-08-19T00:35:46;16.85;;;11.85;;
69008;SDS011;56065;52.472;13.380;2022-08-19T00:38:11;15.60;;;11.47;;
69008;SDS011;56065;52.472;13.380;2022-08-19T00:40:37;16.30;;;11.87;;
69008;SDS011;56065;52.472;13.380;2022-08-19T00:43:07;15.40;;;11.70;;
69008;SDS011;56065;52.472;13.380;2022-08-19T00:45:38;16.23;;;11.80;;
69008;SDS011;56065;52.472;13.380;2022-08-19T00:48:06;15.50;;;11.23;;
69008;SDS011;56065;52.472;13.380;2022-08-19T00:50:32;16.60;;;12.30;;
69008;SDS011;56065;52.472;13.380;2022-08-19T00:52:59;16.38;;;12.32;;
69008;SDS011;56065;52.472;13.380;2022-08-19T00:55:25;18.60;;;12.23;;
69008;SDS011;56065;52.472;13.380;2022-08-19T00:57:54;17.50;;;12.45;;
69008;SDS011;56065;52.472;13.380;2022-08-19T01:00:22;19.42;;;13.10;;
69008;SDS011;56065;52.472;13.380;2022-08-19T01:02:49;19.00;;;13.52;;
69008;SDS011;56065;52.472;13.380;2022-08-19T01:05:20;18.07;;;13.50;;
69008;SDS011;56065;52.472;13.380;2022-08-19T01:07:49;18.05;;;13.32;;
69008;SDS011;56065;52.472;13.380;2022-08-19T01:10:20;18.85;;;13.65;;
69008;SDS011;56065;52.472;13.380;2022-08-19T01:12:48;17.77;;;13.13;;
69008;SDS011;56065;52.472;13.380;2022-08-19T01:15:16;20.07;;;12.77;;
69008;SDS011;56065;52.472;13.380;2022-08-19T01:17:44;17.00;;;11.98;;
69008;SDS011;56065;52.472;13.380;2022-08-19T01:20:12;17.52;;;12.25;;
69008;SDS011;56065;52.472;13.380;2022-08-19T01:25:13;15.57;;;11.15;;
69008;SDS011;56065;52.472;13.380;2022-08-19T01:27:41;17.80;;;11.83;;
69008;SDS011;56065;52.472;13.380;2022-08-19T01:30:09;16.02;;;11.75;;
69008;SDS011;56065;52.472;13.380;2022-08-19T01:32:36;14.23;;;10.10;;
69008;SDS011;56065;52.472;13.380;2022-08-19T01:35:02;17.83;;;12.23;;
69008;SDS011;56065;52.472;13.380;2022-08-19T01:37:29;15.13;;;10.43;;
69008;SDS011;56065;52.472;13.380;2022-08-19T01:40:06;22.63;;;13.05;;
69008;SDS011;56065;52.472;13.380;2022-08-19T01:42:33;15.57;;;9.57;;
69008;SDS011;56065;52.472;13.380;2022-08-19T01:45:00;19.83;;;13.93;;
69008;SDS011;56065;52.472;13.380;2022-08-19T01:47:25;17.33;;;12.67;;
69008;SDS011;56065;52.472;13.380;2022-08-19T01:49:50;21.03;;;13.90;;
69008;SDS011;56065;52.472;13.380;2022-08-19T01:52:16;17.87;;;12.67;;
69008;SDS011;56065;52.472;13.380;2022-08-19T01:54:41;18.57;;;12.00;;
69008;SDS011;56065;52.472;13.380;2022-08-19T01:57:08;15.83;;;11.77;;
69008;SDS011;56065;52.472;13.380;2022-08-19T01:59:36;13.70;;;9.82;;
69008;SDS011;56065;52.472;13.380;2022-08-19T02:02:03;18.13;;;11.77;;
69008;SDS011;56065;52.472;13.380;2022-08-19T02:04:32;19.17;;;13.50;;
69008;SDS011;56065;52.472;13.380;2022-08-19T02:06:59;14.75;;;10.35;;
69008;SDS011;56065;52.472;13.380;2022-08-19T02:09:24;20.53;;;12.43;;
69008;SDS011;56065;52.472;13.380;2022-08-19T02:11:49;17.90;;;11.83;;
69008;SDS011;56065;52.472;13.380;2022-08-19T02:14:15;18.30;;;12.17;;
69008;SDS011;56065;52.472;13.380;2022-08-19T02:16:40;15.17;;;11.47;;
69008;SDS011;56065;52.472;13.380;2022-08-19T02:19:06;18.10;;;10.93;;
69008;SDS011;56065;52.472;13.380;2022-08-19T02:21:32;18.23;;;12.20;;
69008;SDS011;56065;52.472;13.380;2022-08-19T02:23:58;18.05;;;13.20;;
69008;SDS011;56065;52.472;13.380;2022-08-19T02:26:23;17.93;;;12.40;;
69008;SDS011;56065;52.472;13.380;2022-08-19T02:28:50;18.10;;;12.85;;
69008;SDS011;56065;52.472;13.380;2022-08-19T02:31:17;19.90;;;12.07;;
69008;SDS011;56065;52.472;13.380;2022-08-19T02:33:44;14.93;;;9.70;;
69008;SDS011;56065;52.472;13.380;2022-08-19T02:36:11;16.88;;;11.07;;
69008;SDS011;56065;52.472;13.380;2022-08-19T02:38:38;17.45;;;12.30;;
69008;SDS011;56065;52.472;13.380;2022-08-19T02:41:05;17.30;;;12.57;;
69008;SDS011;56065;52.472;13.380;2022-08-19T02:43:36;16.77;;;11.97;;
69008;SDS011;56065;52.472;13.380;2022-08-19T02:46:10;17.77;;;12.38;;
69008;SDS011;56065;52.472;13.380;2022-08-19T02:48:43;17.52;;;11.48;;
69008;SDS011;56065;52.472;13.380;2022-08-19T02:51:08;18.07;;;12.50;;
69008;SDS011;56065;52.472;13.380;2022-08-19T02:53:40;19.75;;;13.38;;
69008;SDS011;56065;52.472;13.380;2022-08-19T02:56:06;19.10;;;12.73;;
69008;SDS011;56065;52.472;13.380;2022-08-19T02:58:32;17.00;;;11.98;;
69008;SDS011;56065;52.472;13.380;2022-08-19T03:00:58;16.50;;;11.77;;
69008;SDS011;56065;52.472;13.380;2022-08-19T03:03:23;19.25;;;11.82;;
69008;SDS011;56065;52.472;13.380;2022-08-19T03:05:49;17.77;;;12.20;;
69008;SDS011;56065;52.472;13.380;2022-08-19T03:08:14;16.73;;;12.43;;
69008;SDS011;56065;52.472;13.380;2022-08-19T03:10:41;19.23;;;12.25;;
69008;SDS011;56065;52.472;13.380;2022-08-19T03:13:09;17.33;;;13.05;;
69008;SDS011;56065;52.472;13.380;2022-08-19T03:15:38;16.80;;;11.47;;
69008;SDS011;56065;52.472;13.380;2022-08-19T03:18:05;19.38;;;14.43;;
69008;SDS011;56065;52.472;13.380;2022-08-19T03:20:30;22.83;;;16.40;;
69008;SDS011;56065;52.472;13.380;2022-08-19T03:22:56;22.65;;;15.40;;
69008;SDS011;56065;52.472;13.380;2022-08-19T03:25:21;28.63;;;19.90;;
69008;SDS011;56065;52.472;13.380;2022-08-19T03:27:46;27.80;;;18.63;;
69008;SDS011;56065;52.472;13.380;2022-08-19T03:30:13;24.75;;;17.27;;
69008;SDS011;56065;52.472;13.380;2022-08-19T03:32:39;29.53;;;20.40;;
69008;SDS011;56065;52.472;13.380;2022-08-19T03:35:05;26.17;;;18.47;;
69008;SDS011;56065;52.472;13.380;2022-08-19T03:37:30;29.52;;;20.10;;
69008;SDS011;56065;52.472;13.380;2022-08-19T03:39:56;32.00;;;21.83;;
69008;SDS011;56065;52.472;13.380;2022-08-19T03:42:21;29.10;;;20.30;;
69008;SDS011;56065;52.472;13.380;2022-08-19T03:44:47;25.30;;;18.10;;
69008;SDS011;56065;52.472;13.380;2022-08-19T03:47:12;22.50;;;14.97;;
69008;SDS011;56065;52.472;13.380;2022-08-19T03:49:41;20.73;;;15.07;;
69008;SDS011;56065;52.472;13.380;2022-08-19T03:52:07;21.57;;;14.80;;
69008;SDS011;56065;52.472;13.380;2022-08-19T03:54:33;25.20;;;15.70;;
69008;SDS011;56065;52.472;13.380;2022-08-19T03:56:59;20.63;;;14.75;;
69008;SDS011;56065;52.472;13.380;2022-08-19T03:59:29;19.53;;;14.00;;
69008;SDS011;56065;52.472;13.380;2022-08-19T04:01:56;21.95;;;15.15;;
69008;SDS011;56065;52.472;13.380;2022-08-19T04:04:23;19.20;;;14.67;;
69008;SDS011;56065;52.472;13.380;2022-08-19T04:06:49;19.98;;;14.73;;
69008;SDS011;56065;52.472;13.380;2022-08-19T04:09:16;21.33;;;14.95;;
69008;SDS011;56065;52.472;13.380;2022-08-19T04:11:44;19.60;;;14.77;;
69008;SDS011;56065;52.472;13.380;2022-08-19T04:14:15;20.98;;;15.75;;
69008;SDS011;56065;52.472;13.380;2022-08-19T04:16:42;20.30;;;14.57;;
69008;SDS011;56065;52.472;13.380;2022-08-19T04:19:09;20.70;;;15.48;;
69008;SDS011;56065;52.472;13.380;2022-08-19T04:21:35;18.17;;;13.80;;
69008;SDS011;56065;52.472;13.380;2022-08-19T04:24:01;22.53;;;14.40;;
69008;SDS011;56065;52.472;13.380;2022-08-19T04:26:30;21.13;;;14.77;;
69008;SDS011;56065;52.472;13.380;2022-08-19T04:28:58;18.98;;;14.68;;
69008;SDS011;56065;52.472;13.380;2022-08-19T04:31:25;21.38;;;16.38;;
69008;SDS011;56065;52.472;13.380;2022-08-19T04:33:53;18.43;;;14.47;;
69008;SDS011;56065;52.472;13.380;2022-08-19T04:36:20;19.08;;;13.68;;
69008;SDS011;56065;52.472;13.380;2022-08-19T04:38:48;18.85;;;14.90;;
69008;SDS011;56065;52.472;13.380;2022-08-19T04:41:14;19.65;;;14.63;;
69008;SDS011;56065;52.472;13.380;2022-08-19T04:43:59;20.20;;;14.57;;
69008;SDS011;56065;52.472;13.380;2022-08-19T04:46:24;21.37;;;14.67;;
69008;SDS011;56065;52.472;13.380;2022-08-19T04:48:50;18.43;;;13.97;;
69008;SDS011;56065;52.472;13.380;2022-08-19T04:51:15;16.93;;;13.57;;
69008;SDS011;56065;52.472;13.380;2022-08-19T04:53:41;18.23;;;13.90;;
69008;SDS011;56065;52.472;13.380;2022-08-19T04:56:12;18.35;;;14.23;;
69008;SDS011;56065;52.472;13.380;2022-08-19T04:58:40;16.90;;;12.50;;
69008;SDS011;56065;52.472;13.380;2022-08-19T05:01:07;18.23;;;13.10;;
69008;SDS011;56065;52.472;13.380;2022-08-19T05:03:34;15.93;;;12.00;;
69008;SDS011;56065;52.472;13.380;2022-08-19T05:06:06;17.87;;;12.23;;
69008;SDS011;56065;52.472;13.380;2022-08-19T05:08:34;17.13;;;12.00;;
69008;SDS011;56065;52.472;13.380;2022-08-19T05:11:06;16.48;;;12.00;;
69008;SDS011;56065;52.472;13.380;2022-08-19T05:13:33;16.55;;;12.43;;
69008;SDS011;56065;52.472;13.380;2022-08-19T05:15:59;19.30;;;12.13;;
69008;SDS011;56065;52.472;13.380;2022-08-19T05:18:24;17.25;;;12.52;;
69008;SDS011;56065;52.472;13.380;2022-08-19T05:21:10;15.20;;;10.67;;
69008;SDS011;56065;52.472;13.380;2022-08-19T05:27:10;16.70;;;11.50;;
69008;SDS011;56065;52.472;13.380;2022-08-19T05:29:36;15.67;;;10.90;;
69008;SDS011;56065;52.472;13.380;2022-08-19T05:32:02;16.45;;;11.80;;
69008;SDS011;56065;52.472;13.380;2022-08-19T05:34:30;14.67;;;11.07;;
69008;SDS011;56065;52.472;13.380;2022-08-19T05:36:56;16.05;;;11.77;;
69008;SDS011;56065;52.472;13.380;2022-08-19T05:39:26;15.77;;;11.48;;
69008;SDS011;56065;52.472;13.380;2022-08-19T05:41:56;18.17;;;12.75;;
69008;SDS011;56065;52.472;13.380;2022-08-19T05:44:27;15.50;;;10.95;;
69008;SDS011;56065;52.472;13.380;2022-08-19T05:46:57;13.40;;;9.23;;
69008;SDS011;56065;52.472;13.380;2022-08-19T05:49:25;13.07;;;9.77;;
69008;SDS011;56065;52.472;13.380;2022-08-19T05:51:52;14.95;;;10.98;;
69008;SDS011;56065;52.472;13.380;2022-08-19T05:54:19;15.48;;;11.38;;
69008;SDS011;56065;52.472;13.380;2022-08-19T05:56:45;14.95;;;10.80;;
69008;SDS011;56065;52.472;13.380;2022-08-19T05:59:13;13.93;;;10.93;;
69008;SDS011;56065;52.472;13.380;2022-08-19T06:01:40;13.13;;;10.55;;
69008;SDS011;56065;52.472;13.380;2022-08-19T06:04:06;15.10;;;11.30;;
69008;SDS011;56065;52.472;13.380;2022-08-19T06:06:33;15.63;;;11.48;;
69008;SDS011;56065;52.472;13.380;2022-08-19T06:09:00;15.90;;;11.98;;
69008;SDS011;56065;52.472;13.380;2022-08-19T06:11:46;19.90;;;12.00;;
69008;SDS011;56065;52.472;13.380;2022-08-19T06:14:21;15.70;;;12.10;;
69008;SDS011;56065;52.472;13.380;2022-08-19T06:16:48;15.60;;;11.55;;
69008;SDS011;56065;52.472;13.380;2022-08-19T06:19:17;16.17;;;11.25;;
69008;SDS011;56065;52.472;13.380;2022-08-19T06:21:44;16.77;;;11.70;;
69008;SDS011;56065;52.472;13.380;2022-08-19T06:24:13;15.33;;;12.43;;
69008;SDS011;56065;52.472;13.380;2022-08-19T06:26:41;16.20;;;12.65;;
69008;SDS011;56065;52.472;13.380;2022-08-19T06:29:12;15.27;;;11.18;;
69008;SDS011;56065;52.472;13.380;2022-08-19T06:31:43;18.80;;;14.05;;
69008;SDS011;56065;52.472;13.380;2022-08-19T06:34:13;15.75;;;10.98;;
69008;SDS011;56065;52.472;13.380;2022-08-19T06:36:40;16.23;;;11.73;;
69008;SDS011;56065;52.472;13.380;2022-08-19T06:39:09;17.27;;;12.80;;
69008;SDS011;56065;52.472;13.380;2022-08-19T06:41:38;18.30;;;11.80;;
69008;SDS011;56065;52.472;13.380;2022-08-19T06:44:06;15.15;;;11.07;;
69008;SDS011;56065;52.472;13.380;2022-08-19T06:46:32;17.92;;;13.18;;
69008;SDS011;56065;52.472;13.380;2022-08-19T06:48:58;17.98;;;12.50;;
69008;SDS011;56065;52.472;13.380;2022-08-19T06:51:24;15.87;;;11.90;;
69008;SDS011;56065;52.472;13.380;2022-08-19T06:53:51;15.90;;;12.00;;
69008;SDS011;56065;52.472;13.380;2022-08-19T06:56:19;17.35;;;11.95;;
69008;SDS011;56065;52.472;13.380;2022-08-19T06:58:58;18.50;;;13.20;;
69008;SDS011;56065;52.472;13.380;2022-08-19T07:01:29;20.83;;;13.50;;
69008;SDS011;56065;52.472;13.380;2022-08-19T07:03:55;18.45;;;13.93;;
69008;SDS011;56065;52.472;13.380;2022-08-19T07:06:21;19.27;;;13.82;;
69008;SDS011;56065;52.472;13.380;2022-08-19T07:08:47;19.77;;;13.33;;
69008;SDS011;56065;52.472;13.380;2022-08-19T07:11:14;18.50;;;13.27;;
69008;SDS011;56065;52.472;13.380;2022-08-19T07:13:42;20.25;;;13.68;;
69008;SDS011;56065;52.472;13.380;2022-08-19T07:16:11;17.35;;;12.90;;
69008;SDS011;56065;52.472;13.380;2022-08-19T07:18:39;22.33;;;14.20;;
69008;SDS011;56065;52.472;13.380;2022-08-19T07:21:06;18.77;;;13.23;;
69008;SDS011;56065;52.472;13.380;2022-08-19T07:23:40;16.33;;;11.75;;
69008;SDS011;56065;52.472;13.380;2022-08-19T07:26:25;19.85;;;13.63;;
69008;SDS011;56065;52.472;13.380;2022-08-19T07:28:53;17.05;;;13.35;;
69008;SDS011;56065;52.472;13.380;2022-08-19T07:31:19;17.93;;;12.97;;
69008;SDS011;56065;52.472;13.380;2022-08-19T07:33:47;15.95;;;13.05;;
69008;SDS011;56065;52.472;13.380;2022-08-19T07:36:14;17.40;;;13.65;;
69008;SDS011;56065;52.472;13.380;2022-08-19T07:38:43;18.95;;;12.98;;
69008;SDS011;56065;52.472;13.380;2022-08-19T07:41:11;19.10;;;13.02;;
69008;SDS011;56065;52.472;13.380;2022-08-19T07:43:39;17.60;;;13.27;;
69008;SDS011;56065;52.472;13.380;2022-08-19T07:46:05;17.92;;;13.45;;
69008;SDS011;56065;52.472;13.380;2022-08-19T07:48:31;17.80;;;12.48;;
69008;SDS011;56065;52.472;13.380;2022-08-19T07:50:58;17.27;;;12.40;;
69008;SDS011;56065;52.472;13.380;2022-08-19T07:53:29;16.10;;;12.35;;
69008;SDS011;56065;52.472;13.380;2022-08-19T07:55:56;16.73;;;13.47;;
69008;SDS011;56065;52.472;13.380;2022-08-19T07:58:28;17.58;;;13.60;;
69008;SDS011;56065;52.472;13.380;2022-08-19T08:00:54;16.35;;;13.13;;
69008;SDS011;56065;52.472;13.380;2022-08-19T08:03:21;18.37;;;14.00;;
69008;SDS011;56065;52.472;13.380;2022-08-19T08:06:10;17.90;;;13.77;;
69008;SDS011;56065;52.472;13.380;2022-08-19T08:08:58;18.85;;;14.98;;
69008;SDS011;56065;52.472;13.380;2022-08-19T08:11:39;19.33;;;14.65;;
69008;SDS011;56065;52.472;13.380;2022-08-19T08:14:23;19.43;;;14.43;;
69008;SDS011;56065;52.472;13.380;2022-08-19T08:16:51;20.45;;;15.80;;
69008;SDS011;56065;52.472;13.380;2022-08-19T08:19:18;20.20;;;14.70;;
69008;SDS011;56065;52.472;13.380;2022-08-19T08:21:46;19.80;;;16.47;;
69008;SDS011;56065;52.472;13.380;2022-08-19T08:24:12;19.05;;;15.60;;
69008;SDS011;56065;52.472;13.380;2022-08-19T08:26:37;22.93;;;16.70;;
69008;SDS011;56065;52.472;13.380;2022-08-19T08:29:03;17.98;;;15.20;;
69008;SDS011;56065;52.472;13.380;2022-08-19T08:31:29;19.50;;;14.87;;
69008;SDS011;56065;52.472;13.380;2022-08-19T08:33:54;19.30;;;15.43;;
69008;SDS011;56065;52.472;13.380;2022-08-19T08:36:20;20.53;;;15.67;;
69008;SDS011;56065;52.472;13.380;2022-08-19T08:38:45;22.03;;;15.93;;
69008;SDS011;56065;52.472;13.380;2022-08-19T08:41:17;20.75;;;16.27;;
69008;SDS011;56065;52.472;13.380;2022-08-19T08:43:53;19.67;;;16.53;;
69008;SDS011;56065;52.472;13.380;2022-08-19T08:46:33;19.92;;;16.15;;
69008;SDS011;56065;52.472;13.380;2022-08-19T08:49:20;20.17;;;16.23;;
69008;SDS011;56065;52.472;13.380;2022-08-19T08:52:03;21.70;;;15.32;;
69008;SDS011;56065;52.472;13.380;2022-08-19T08:54:40;19.42;;;15.63;;
69008;SDS011;56065;52.472;13.380;2022-08-19T08:57:12;20.77;;;16.53;;
69008;SDS011;56065;52.472;13.380;2022-08-19T08:59:43;21.42;;;17.00;;
69008;SDS011;56065;52.472;13.380;2022-08-19T09:02:15;21.45;;;16.13;;
69008;SDS011;56065;52.472;13.380;2022-08-19T09:04:41;18.73;;;15.10;;
69008;SDS011;56065;52.472;13.380;2022-08-19T09:15:27;24.45;;;17.70;;
69008;SDS011;56065;52.472;13.380;2022-08-19T09:17:59;20.20;;;16.40;;
69008;SDS011;56065;52.472;13.380;2022-08-19T09:20:26;18.38;;;16.48;;
69008;SDS011;56065;52.472;13.380;2022-08-19T09:22:52;22.30;;;15.00;;
69008;SDS011;56065;52.472;13.380;2022-08-19T09:25:19;18.57;;;14.30;;
69008;SDS011;56065;52.472;13.380;2022-08-19T09:27:49;18.17;;;14.95;;
69008;SDS011;56065;52.472;13.380;2022-08-19T09:30:25;18.40;;;14.50;;
69008;SDS011;56065;52.472;13.380;2022-08-19T09:32:53;16.37;;;14.33;;
69008;SDS011;56065;52.472;13.380;2022-08-19T09:35:20;19.15;;;14.88;;
69008;SDS011;56065;52.472;13.380;2022-08-19T09:37:47;18.58;;;14.65;;
69008;SDS011;56065;52.472;13.380;2022-08-19T09:40:14;17.45;;;13.82;;
69008;SDS011;56065;52.472;13.380;2022-08-19T09:42:40;17.27;;;14.80;;
69008;SDS011;56065;52.472;13.380;2022-08-19T09:45:08;19.73;;;14.50;;
69008;SDS011;56065;52.472;13.380;2022-08-19T09:47:34;23.92;;;15.02;;
69008;SDS011;56065;52.472;13.380;2022-08-19T09:50:03;18.20;;;14.90;;
69008;SDS011;56065;52.472;13.380;2022-08-19T09:52:33;17.88;;;13.85;;
69008;SDS011;56065;52.472;13.380;2022-08-19T09:55:01;21.98;;;15.02;;
69008;SDS011;56065;52.472;13.380;2022-08-19T09:57:28;18.70;;;13.87;;
69008;SDS011;56065;52.472;13.380;2022-08-19T09:59:54;17.92;;;15.07;;
69008;SDS011;56065;52.472;13.380;2022-08-19T10:02:19;16.93;;;13.40;;
69008;SDS011;56065;52.472;13.380;2022-08-19T10:04:44;15.87;;;13.50;;
69008;SDS011;56065;52.472;13.380;2022-08-19T10:07:29;17.85;;;15.05;;
69008;SDS011;56065;52.472;13.380;2022-08-19T10:09:54;17.87;;;13.97;;
69008;SDS011;56065;52.472;13.380;2022-08-19T10:12:20;18.25;;;14.27;;
69008;SDS011;56065;52.472;13.380;2022-08-19T10:14:46;17.90;;;13.57;;
69008;SDS011;56065;52.472;13.380;2022-08-19T10:17:11;19.30;;;14.83;;
69008;SDS011;56065;52.472;13.380;2022-08-19T10:19:36;16.83;;;14.43;;
69008;SDS011;56065;52.472;13.380;2022-08-19T10:22:05;18.30;;;14.40;;
69008;SDS011;56065;52.472;13.380;2022-08-19T10:24:32;17.13;;;13.80;;
69008;SDS011;56065;52.472;13.380;2022-08-19T10:26:59;24.40;;;15.15;;
69008;SDS011;56065;52.472;13.380;2022-08-19T10:29:26;22.58;;;14.13;;
69008;SDS011;56065;52.472;13.380;2022-08-19T10:31:53;18.98;;;13.65;;
69008;SDS011;56065;52.472;13.380;2022-08-19T10:34:19;20.83;;;14.02;;
69008;SDS011;56065;52.472;13.380;2022-08-19T10:36:44;18.07;;;14.13;;
69008;SDS011;56065;52.472;13.380;2022-08-19T10:39:10;17.67;;;12.67;;
69008;SDS011;56065;52.472;13.380;2022-08-19T10:41:38;19.00;;;12.75;;
69008;SDS011;56065;52.472;13.380;2022-08-19T10:44:06;18.17;;;13.88;;
69008;SDS011;56065;52.472;13.380;2022-08-19T10:46:36;18.35;;;13.77;;
69008;SDS011;56065;52.472;13.380;2022-08-19T10:49:03;18.48;;;13.85;;
69008;SDS011;56065;52.472;13.380;2022-08-19T10:51:30;17.53;;;13.87;;
69008;SDS011;56065;52.472;13.380;2022-08-19T10:54:15;21.00;;;12.90;;
69008;SDS011;56065;52.472;13.380;2022-08-19T10:56:41;18.67;;;14.70;;
69008;SDS011;56065;52.472;13.380;2022-08-19T10:59:24;18.33;;;13.93;;
69008;SDS011;56065;52.472;13.380;2022-08-19T11:01:52;17.42;;;13.30;;
69008;SDS011;56065;52.472;13.380;2022-08-19T11:04:19;16.60;;;13.53;;
69008;SDS011;56065;52.472;13.380;2022-08-19T11:06:45;17.45;;;13.48;;
69008;SDS011;56065;52.472;13.380;2022-08-19T11:09:13;17.15;;;13.60;;
69008;SDS011;56065;52.472;13.380;2022-08-19T11:11:40;17.60;;;13.18;;
69008;SDS011;56065;52.472;13.380;2022-08-19T11:14:07;17.58;;;13.50;;
69008;SDS011;56065;52.472;13.380;2022-08-19T11:16:34;15.53;;;13.30;;
69008;SDS011;56065;52.472;13.380;2022-08-19T11:19:00;16.77;;;13.60;;
69008;SDS011;56065;52.472;13.380;2022-08-19T11:23:55;19.25;;;12.80;;
69008;SDS011;56065;52.472;13.380;2022-08-19T11:26:23;19.47;;;12.33;;
69008;SDS011;56065;52.472;13.380;2022-08-19T11:28:49;16.63;;;12.73;;
69008;SDS011;56065;52.472;13.380;2022-08-19T11:31:19;16.83;;;12.73;;
69008;SDS011;56065;52.472;13.380;2022-08-19T11:33:46;15.55;;;12.05;;
69008;SDS011;56065;52.472;13.380;2022-08-19T11:36:15;16.92;;;12.75;;
69008;SDS011;56065;52.472;13.380;2022-08-19T11:38:41;15.37;;;12.23;;
69008;SDS011;56065;52.472;13.380;2022-08-19T11:41:07;15.23;;;11.50;;
69008;SDS011;56065;52.472;13.380;2022-08-19T11:43:33;15.30;;;12.83;;
69008;SDS011;56065;52.472;13.380;2022-08-19T11:45:59;15.43;;;11.55;;
69008;SDS011;56065;52.472;13.380;2022-08-19T11:48:28;16.23;;;11.60;;
69008;SDS011;56065;52.472;13.380;2022-08-19T11:50:53;14.60;;;11.30;;
69008;SDS011;56065;52.472;13.380;2022-08-19T11:53:21;14.77;;;11.77;;
69008;SDS011;56065;52.472;13.380;2022-08-19T11:55:47;15.53;;;11.53;;
69008;SDS011;56065;52.472;13.380;2022-08-19T11:58:13;13.85;;;11.30;;
69008;SDS011;56065;52.472;13.380;2022-08-19T12:00:40;16.35;;;11.25;;
69008;SDS011;56065;52.472;13.380;2022-08-19T12:03:06;15.00;;;11.77;;
69008;SDS011;56065;52.472;13.380;2022-08-19T12:05:32;14.13;;;10.57;;
69008;SDS011;56065;52.472;13.380;2022-08-19T12:07:58;15.20;;;10.65;;
69008;SDS011;56065;52.472;13.380;2022-08-19T12:10:23;15.23;;;10.80;;
69008;SDS011;56065;52.472;13.380;2022-08-19T12:12:49;14.68;;;10.35;;
69008;SDS011;56065;52.472;13.380;2022-08-19T12:15:15;13.37;;;10.17;;
69008;SDS011;56065;52.472;13.380;2022-08-19T12:17:40;14.37;;;10.40;;
69008;SDS011;56065;52.472;13.380;2022-08-19T12:20:07;14.77;;;10.40;;
69008;SDS011;56065;52.472;13.380;2022-08-19T12:22:38;13.32;;;10.18;;
69008;SDS011;56065;52.472;13.380;2022-08-19T12:25:04;13.65;;;9.82;;
69008;SDS011;56065;52.472;13.380;2022-08-19T12:27:30;13.43;;;9.57;;
69008;SDS011;56065;52.472;13.380;2022-08-19T12:29:56;15.43;;;10.03;;
69008;SDS011;56065;52.472;13.380;2022-08-19T12:32:22;12.77;;;8.73;;
69008;SDS011;56065;52.472;13.380;2022-08-19T12:34:49;12.90;;;8.77;;
69008;SDS011;56065;52.472;13.380;2022-08-19T12:37:15;13.93;;;9.17;;
69008;SDS011;56065;52.472;13.380;2022-08-19T12:39:41;13.13;;;9.15;;
69008;SDS011;56065;52.472;13.380;2022-08-19T12:42:08;11.90;;;9.20;;
69008;SDS011;56065;52.472;13.380;2022-08-19T12:44:35;11.37;;;8.70;;
69008;SDS011;56065;52.472;13.380;2022-08-19T12:47:02;12.15;;;8.23;;
69008;SDS011;56065;52.472;13.380;2022-08-19T12:49:29;11.20;;;8.32;;
69008;SDS011;56065;52.472;13.380;2022-08-19T12:51:56;11.73;;;7.68;;
69008;SDS011;56065;52.472;13.380;2022-08-19T12:54:23;11.95;;;7.95;;
69008;SDS011;56065;52.472;13.380;2022-08-19T12:56:48;11.60;;;8.27;;
69008;SDS011;56065;52.472;13.380;2022-08-19T12:59:14;11.87;;;8.23;;
69008;SDS011;56065;52.472;13.380;2022-08-19T13:01:42;10.88;;;8.20;;
69008;SDS011;56065;52.472;13.380;2022-08-19T13:04:08;10.63;;;8.20;;
69008;SDS011;56065;52.472;13.380;2022-08-19T13:06:34;11.03;;;8.10;;
69008;SDS011;56065;52.472;13.380;2022-08-19T13:08:59;10.83;;;7.93;;
69008;SDS011;56065;52.472;13.380;2022-08-19T13:11:24;13.27;;;8.93;;
69008;SDS011;56065;52.472;13.380;2022-08-19T13:13:51;12.93;;;9.48;;
69008;SDS011;56065;52.472;13.380;2022-08-19T13:16:17;12.83;;;9.80;;
69008;SDS011;56065;52.472;13.380;2022-08-19T13:18:45;12.90;;;9.77;;
69008;SDS011;56065;52.472;13.380;2022-08-19T13:21:12;13.65;;;9.52;;
69008;SDS011;56065;52.472;13.380;2022-08-19T13:23:38;17.85;;;11.13;;
69008;SDS011;56065;52.472;13.380;2022-08-19T13:26:05;14.85;;;9.70;;
69008;SDS011;56065;52.472;13.380;2022-08-19T13:28:33;15.13;;;9.37;;
69008;SDS011;56065;52.472;13.380;2022-08-19T13:31:29;16.25;;;9.95;;
69008;SDS011;56065;52.472;13.380;2022-08-19T13:34:16;14.68;;;9.50;;
69008;SDS011;56065;52.472;13.380;2022-08-19T13:36:43;14.27;;;9.55;;
69008;SDS011;56065;52.472;13.380;2022-08-19T13:39:08;13.53;;;9.90;;
69008;SDS011;56065;52.472;13.380;2022-08-19T13:41:34;13.75;;;9.95;;
69008;SDS011;56065;52.472;13.380;2022-08-19T13:44:01;13.95;;;10.27;;
69008;SDS011;56065;52.472;13.380;2022-08-19T13:46:27;13.80;;;9.77;;
69008;SDS011;56065;52.472;13.380;2022-08-19T13:48:55;15.20;;;9.40;;
69008;SDS011;56065;52.472;13.380;2022-08-19T13:51:21;12.05;;;9.52;;
69008;SDS011;56065;52.472;13.380;2022-08-19T13:53:46;13.63;;;10.07;;
69008;SDS011;56065;52.472;13.380;2022-08-19T13:56:13;13.33;;;10.10;;
69008;SDS011;56065;52.472;13.380;2022-08-19T13:58:41;12.77;;;9.80;;
69008;SDS011;56065;52.472;13.380;2022-08-19T14:01:07;12.53;;;10.17;;
69008;SDS011;56065;52.472;13.380;2022-08-19T14:03:34;14.45;;;9.95;;
69008;SDS011;56065;52.472;13.380;2022-08-19T14:06:00;12.25;;;9.60;;
69008;SDS011;56065;52.472;13.380;2022-08-19T14:08:25;12.60;;;9.70;;
69008;SDS011;56065;52.472;13.380;2022-08-19T14:10:53;13.60;;;10.18;;
69008;SDS011;56065;52.472;13.380;2022-08-19T14:13:20;15.10;;;9.93;;
69008;SDS011;56065;52.472;13.380;2022-08-19T14:15:46;13.75;;;9.85;;
69008;SDS011;56065;52.472;13.380;2022-08-19T14:18:12;12.70;;;9.77;;
69008;SDS011;56065;52.472;13.380;2022-08-19T14:20:39;12.35;;;9.35;;
69008;SDS011;56065;52.472;13.380;2022-08-19T14:23:04;13.95;;;9.57;;
69008;SDS011;56065;52.472;13.380;2022-08-19T14:25:31;11.70;;;9.17;;
69008;SDS011;56065;52.472;13.380;2022-08-19T14:27:57;16.80;;;9.13;;
69008;SDS011;56065;52.472;13.380;2022-08-19T14:30:25;13.23;;;9.10;;
69008;SDS011;56065;52.472;13.380;2022-08-19T14:32:53;11.93;;;9.23;;